Time;durP1;ratioP1;P1;durP2;ratioP2;P2;SDS_P1;SDS_P2;PMS_P1;PMS_P2;Temp;Humidity;BMP_temperature;BMP_pressure;BME280_temperature;BME280_humidity;BME280_pressure;Samples;Min_cycle;Max_cycle;Signal;HPM_P1;HPM_P2
2022/10/17 00:01:34;;;;;;;2.13;1.90;;;19.10;53.30;;;;;;4937557;28;20208;-36
2022/10/17 00:04:05;;;;;;;3.10;1.88;;;19.10;53.30;;;;;;4934245;29;20327;-37
2022/10/17 00:06:35;;;;;;;3.35;2.00;;;19.20;53.20;;;;;;4933192;29;20207;-37
2022/10/17 00:09:06;;;;;;;3.40;2.00;;;19.20;53.20;;;;;;4934647;29;20211;-42
2022/10/17 00:11:38;;;;;;;3.05;1.90;;;19.30;53.40;;;;;;4933615;29;20227;-43
2022/10/17 00:14:10;;;;;;;3.45;2.30;;;19.30;53.40;;;;;;4934787;29;20219;-38
2022/10/17 00:16:41;;;;;;;3.92;2.20;;;19.30;53.30;;;;;;4933797;29;20672;-37
2022/10/17 00:19:11;;;;;;;3.60;2.20;;;19.30;53.20;;;;;;4934805;29;20206;-37
2022/10/17 00:21:42;;;;;;;2.88;2.00;;;19.30;53.10;;;;;;4934106;29;20604;-37
2022/10/17 00:24:13;;;;;;;2.72;1.80;;;19.40;53.10;;;;;;4933608;29;21879;-45
2022/10/17 00:26:44;;;;;;;3.15;2.03;;;19.40;53.10;;;;;;4933377;29;20203;-40
2022/10/17 00:29:16;;;;;;;2.53;1.83;;;19.50;53.00;;;;;;4914026;29;20656;-36
2022/10/17 00:31:47;;;;;;;2.35;1.77;;;19.50;53.20;;;;;;4929361;29;20769;-41
2022/10/17 00:34:17;;;;;;;4.07;2.08;;;19.50;53.20;;;;;;4932245;29;20227;-38
2022/10/17 00:36:48;;;;;;;3.28;1.90;;;19.50;53.20;;;;;;4933281;29;20200;-40
2022/10/17 00:39:19;;;;;;;3.53;2.00;;;19.60;53.20;;;;;;4933420;29;20195;-37
2022/10/17 00:41:50;;;;;;;4.00;2.15;;;19.60;53.20;;;;;;4929577;29;20202;-38
2022/10/17 00:44:58;;;;;;;3.47;1.70;;;19.60;53.20;;;;;;4932766;29;20224;-37
2022/10/17 00:47:32;;;;;;;2.90;1.83;;;19.60;53.20;;;;;;4933036;29;20335;-37
2022/10/17 00:50:04;;;;;;;2.38;1.63;;;19.60;53.10;;;;;;4933121;29;20199;-37
2022/10/17 00:52:35;;;;;;;2.67;1.90;;;19.70;53.00;;;;;;4933085;29;20223;-37
2022/10/17 00:55:13;;;;;;;2.08;1.80;;;19.70;52.90;;;;;;4932982;29;20224;-36
2022/10/17 00:57:46;;;;;;;2.35;1.80;;;19.70;52.90;;;;;;4932855;29;20203;-39
2022/10/17 01:00:18;;;;;;;2.97;1.98;;;19.70;52.80;;;;;;4932562;29;20597;-37
2022/10/17 01:02:50;;;;;;;2.28;2.00;;;19.70;53.50;;;;;;4933541;29;20204;-37
2022/10/17 01:05:21;;;;;;;3.40;1.83;;;19.80;53.00;;;;;;4935660;29;20220;-37
2022/10/17 01:07:54;;;;;;;1.90;1.73;;;19.80;53.00;;;;;;4932475;29;20195;-39
2022/10/17 01:10:28;;;;;;;2.10;1.90;;;19.80;53.00;;;;;;4933330;29;20200;-38
2022/10/17 01:13:09;;;;;;;3.85;2.10;;;19.80;52.90;;;;;;4932362;29;20210;-37
2022/10/17 01:15:52;;;;;;;2.85;2.10;;;19.90;53.00;;;;;;4933643;29;20212;-39
2022/10/17 01:18:36;;;;;;;2.65;1.73;;;19.90;53.00;;;;;;4932936;29;20203;-35
2022/10/17 01:21:35;;;;;;;2.30;1.95;;;19.90;53.00;;;;;;4933456;29;20585;-39
2022/10/17 01:24:41;;;;;;;2.95;2.00;;;19.90;53.00;;;;;;4934333;28;20199;-35
2022/10/17 01:27:37;;;;;;;2.25;1.83;;;19.90;52.90;;;;;;4928991;29;20565;-35
2022/10/17 01:30:36;;;;;;;3.05;1.80;;;20.00;52.80;;;;;;4916150;29;20214;-35
2022/10/17 01:33:14;;;;;;;4.03;2.47;;;20.00;52.80;;;;;;4931534;28;20206;-39
2022/10/17 01:35:50;;;;;;;2.35;2.05;;;20.00;52.70;;;;;;4932972;29;20567;-40
2022/10/17 01:38:24;;;;;;;4.03;1.98;;;20.00;52.80;;;;;;4932317;29;21127;-39
2022/10/17 01:41:02;;;;;;;3.50;1.85;;;20.00;52.80;;;;;;4932826;29;20602;-38
2022/10/17 01:43:39;;;;;;;3.50;2.25;;;20.00;52.80;;;;;;4933152;29;20616;-35
2022/10/17 01:46:17;;;;;;;3.80;2.58;;;20.00;52.80;;;;;;4932187;29;20223;-36
2022/10/17 01:48:49;;;;;;;4.40;2.30;;;20.10;52.80;;;;;;4932541;29;20203;-35
2022/10/17 01:51:22;;;;;;;3.38;2.33;;;20.10;52.80;;;;;;4931334;29;20219;-41
2022/10/17 01:53:58;;;;;;;3.47;2.42;;;20.10;52.80;;;;;;4931390;29;20220;-35
2022/10/17 01:56:32;;;;;;;3.08;2.22;;;20.10;52.80;;;;;;4932171;29;20207;-38
2022/10/17 01:59:06;;;;;;;3.75;2.20;;;20.10;52.80;;;;;;4932334;29;20683;-38
2022/10/17 02:01:39;;;;;;;3.40;2.15;;;20.10;52.80;;;;;;4932240;29;20200;-35
2022/10/17 02:04:12;;;;;;;3.40;2.25;;;20.10;52.80;;;;;;4932615;29;20203;-35
2022/10/17 02:06:43;;;;;;;4.15;2.20;;;20.10;52.80;;;;;;4932839;29;20204;-42
2022/10/17 02:09:22;;;;;;;2.72;1.88;;;20.10;52.80;;;;;;4931711;29;20207;-38
2022/10/17 02:12:06;;;;;;;2.80;1.98;;;20.10;52.80;;;;;;4934251;29;20239;-39
2022/10/17 02:14:47;;;;;;;3.13;2.10;;;20.10;52.70;;;;;;4934901;29;20219;-36
2022/10/17 02:17:23;;;;;;;3.38;2.10;;;20.10;52.70;;;;;;4936945;29;20206;-40
2022/10/17 02:20:04;;;;;;;2.80;2.03;;;20.10;52.70;;;;;;4935681;29;20203;-42
2022/10/17 02:22:41;;;;;;;3.22;2.42;;;20.10;52.60;;;;;;4935416;29;20195;-35
2022/10/17 02:25:19;;;;;;;3.17;2.28;;;20.10;52.70;;;;;;4936596;29;20219;-36
2022/10/17 02:27:54;;;;;;;3.22;2.20;;;20.10;52.70;;;;;;4933728;29;20211;-35
2022/10/17 02:30:31;;;;;;;2.75;2.00;;;20.10;52.80;;;;;;4935192;29;20214;-37
2022/10/17 02:33:04;;;;;;;3.58;2.20;;;20.10;52.70;;;;;;4934811;29;20231;-40
2022/10/17 02:35:41;;;;;;;3.35;1.70;;;20.10;52.70;;;;;;4935684;29;20222;-35
2022/10/17 02:38:15;;;;;;;2.92;2.00;;;20.10;52.70;;;;;;4916553;29;20231;-35
2022/10/17 02:40:48;;;;;;;3.03;2.20;;;20.20;52.80;;;;;;4932746;29;20200;-42
2022/10/17 02:43:19;;;;;;;4.38;1.92;;;20.20;52.70;;;;;;4935673;29;20778;-36
2022/10/17 02:45:50;;;;;;;3.50;1.88;;;20.20;52.70;;;;;;4935175;29;20226;-36
2022/10/17 02:48:28;;;;;;;4.25;1.98;;;20.20;52.60;;;;;;4935237;29;20656;-37
2022/10/17 02:51:09;;;;;;;4.63;1.90;;;20.20;52.60;;;;;;4935866;29;20199;-41
2022/10/17 02:53:47;;;;;;;2.40;1.80;;;20.20;52.60;;;;;;4934507;29;20211;-37
2022/10/17 02:56:21;;;;;;;3.15;1.60;;;20.20;52.60;;;;;;4935410;29;20215;-35
2022/10/17 02:58:55;;;;;;;4.93;1.90;;;20.20;52.50;;;;;;4935324;29;20204;-35
2022/10/17 03:01:27;;;;;;;3.08;2.00;;;20.20;52.50;;;;;;4935271;29;20187;-38
2022/10/17 03:04:08;;;;;;;3.65;1.92;;;20.20;52.60;;;;;;4935679;29;20574;-43
2022/10/17 03:06:42;;;;;;;3.20;1.63;;;20.20;52.60;;;;;;4935655;29;20192;-35
2022/10/17 03:09:12;;;;;;;2.67;1.70;;;20.20;52.50;;;;;;4951862;29;20198;-36
2022/10/17 03:11:43;;;;;;;3.72;1.98;;;20.20;52.50;;;;;;4947987;28;20223;-35
2022/10/17 03:14:14;;;;;;;3.80;1.85;;;20.20;52.50;;;;;;4934506;29;20228;-35
2022/10/17 03:16:45;;;;;;;2.70;1.80;;;20.20;52.50;;;;;;4935268;29;20200;-36
2022/10/17 03:19:16;;;;;;;3.63;1.85;;;20.20;52.40;;;;;;4935453;29;20195;-38
2022/10/17 03:21:48;;;;;;;3.22;1.65;;;20.20;52.40;;;;;;4934938;29;20204;-36
2022/10/17 03:24:19;;;;;;;4.43;1.90;;;20.30;52.40;;;;;;4935461;29;20314;-36
2022/10/17 03:26:50;;;;;;;2.42;1.73;;;20.30;52.40;;;;;;4935122;29;20206;-36
2022/10/17 03:29:20;;;;;;;2.80;1.63;;;20.20;52.30;;;;;;4935683;29;20205;-35
2022/10/17 03:31:51;;;;;;;2.40;1.63;;;20.20;52.30;;;;;;4935148;29;20676;-37
2022/10/17 03:34:22;;;;;;;4.93;1.90;;;20.20;52.30;;;;;;4930853;29;20228;-36
2022/10/17 03:36:54;;;;;;;4.32;1.60;;;20.20;52.30;;;;;;4926532;29;20577;-36
2022/10/17 03:39:26;;;;;;;2.25;1.70;;;20.20;52.30;;;;;;4934165;29;20656;-38
2022/10/17 03:41:56;;;;;;;2.50;1.45;;;20.20;52.30;;;;;;4942437;29;20503;-38
2022/10/17 03:44:27;;;;;;;2.05;1.42;;;20.20;52.30;;;;;;4936636;28;20219;-36
2022/10/17 03:46:58;;;;;;;4.90;1.90;;;20.20;52.30;;;;;;4934732;29;20219;-39
2022/10/17 03:49:31;;;;;;;3.00;1.55;;;20.20;52.30;;;;;;4935834;29;20200;-36
2022/10/17 03:52:04;;;;;;;2.63;1.40;;;20.20;52.30;;;;;;4915034;29;20231;-36
2022/10/17 03:54:35;;;;;;;3.47;1.48;;;20.20;52.30;;;;;;4938061;28;20636;-37
2022/10/17 03:57:06;;;;;;;3.45;1.73;;;20.20;52.30;;;;;;4934436;29;20207;-39
2022/10/17 03:59:36;;;;;;;3.35;1.58;;;20.20;52.30;;;;;;4933866;29;20196;-39
2022/10/17 04:02:07;;;;;;;3.17;1.30;;;20.20;52.30;;;;;;4933425;29;20215;-38
2022/10/17 04:04:38;;;;;;;2.45;1.60;;;20.20;52.60;;;;;;4951517;28;20250;-41
2022/10/17 04:07:10;;;;;;;3.80;1.70;;;20.20;53.00;;;;;;4934244;28;20199;-39
2022/10/17 04:09:41;;;;;;;4.43;1.50;;;20.20;53.00;;;;;;4932079;29;20195;-36
2022/10/17 04:12:12;;;;;;;6.50;1.58;;;20.20;53.10;;;;;;4943046;29;20234;-40
2022/10/17 04:14:42;;;;;;;3.63;1.55;;;20.20;53.00;;;;;;4935429;28;20222;-43
2022/10/17 04:17:13;;;;;;;2.45;1.33;;;20.20;53.00;;;;;;4934536;29;20202;-36
2022/10/17 04:19:44;;;;;;;2.72;1.55;;;20.20;52.90;;;;;;4933359;29;20195;-41
2022/10/17 04:22:16;;;;;;;3.47;1.58;;;20.20;52.90;;;;;;4934465;29;20215;-41
2022/10/17 04:24:47;;;;;;;1.95;1.50;;;20.20;52.80;;;;;;4946266;28;20226;-41
2022/10/17 04:27:18;;;;;;;3.80;1.60;;;20.20;52.80;;;;;;4938110;28;20211;-36
2022/10/17 04:29:49;;;;;;;2.85;1.70;;;20.20;52.70;;;;;;4934502;29;20199;-37
2022/10/17 04:32:19;;;;;;;2.67;1.60;;;20.20;52.60;;;;;;4933992;29;20310;-40
2022/10/17 04:34:52;;;;;;;3.25;1.50;;;20.20;52.60;;;;;;4933737;29;20216;-41
2022/10/17 04:37:25;;;;;;;2.88;1.65;;;20.20;52.60;;;;;;4933635;29;20196;-39
2022/10/17 04:39:55;;;;;;;2.90;1.48;;;20.20;52.60;;;;;;4933026;29;20562;-40
2022/10/17 04:42:26;;;;;;;5.65;1.50;;;20.20;52.60;;;;;;4933186;29;20211;-40
2022/10/17 04:44:57;;;;;;;3.58;1.52;;;20.20;52.50;;;;;;4934123;29;20216;-36
2022/10/17 04:47:27;;;;;;;3.05;1.13;;;20.20;52.60;;;;;;4934130;29;20199;-38
2022/10/17 04:49:58;;;;;;;4.75;1.73;;;20.10;52.50;;;;;;4934097;29;20199;-39
2022/10/17 04:52:31;;;;;;;4.05;1.80;;;20.10;52.50;;;;;;4933954;29;20230;-38
2022/10/17 04:55:01;;;;;;;3.40;1.55;;;20.10;52.40;;;;;;4933750;29;20219;-40
2022/10/17 04:57:35;;;;;;;6.05;2.55;;;20.10;52.40;;;;;;4933027;29;20215;-37
2022/10/17 05:00:08;;;;;;;4.90;3.03;;;20.10;52.40;;;;;;4935633;29;20195;-39
2022/10/17 05:02:39;;;;;;;5.47;2.90;;;20.10;52.30;;;;;;4952365;28;20575;-36
2022/10/17 05:05:10;;;;;;;5.43;2.80;;;20.10;52.30;;;;;;4935528;28;20227;-43
2022/10/17 05:07:45;;;;;;;4.10;2.50;;;20.10;52.30;;;;;;4933556;28;20206;-37
2022/10/17 05:10:15;;;;;;;4.65;2.75;;;20.10;52.20;;;;;;4951530;29;20570;-37
2022/10/17 05:12:47;;;;;;;4.20;2.42;;;20.10;52.20;;;;;;4952786;28;20711;-36
2022/10/17 05:15:18;;;;;;;3.83;2.88;;;20.10;52.20;;;;;;4952498;28;20226;-37
2022/10/17 05:17:49;;;;;;;5.20;2.65;;;20.00;52.20;;;;;;4951830;28;20199;-39
2022/10/17 05:20:20;;;;;;;5.18;2.58;;;20.00;52.10;;;;;;4952462;28;20604;-37
2022/10/17 05:22:52;;;;;;;3.25;2.45;;;20.00;52.20;;;;;;4953099;28;20201;-39
2022/10/17 05:25:23;;;;;;;3.92;2.45;;;20.00;52.20;;;;;;4952777;28;20227;-41
2022/10/17 05:27:54;;;;;;;3.28;2.25;;;20.00;52.20;;;;;;4914757;29;20211;-39
2022/10/17 05:30:25;;;;;;;3.25;2.13;;;20.00;52.20;;;;;;4932941;29;20207;-38
2022/10/17 05:32:58;;;;;;;4.45;2.50;;;20.00;52.20;;;;;;4932492;29;20219;-36
2022/10/17 05:35:29;;;;;;;4.65;2.50;;;20.00;52.20;;;;;;4933935;28;20279;-36
2022/10/17 05:38:01;;;;;;;4.13;2.25;;;20.00;52.20;;;;;;4933054;29;20218;-41
2022/10/17 05:40:32;;;;;;;3.40;2.10;;;20.00;52.20;;;;;;4953036;28;20202;-37
2022/10/17 05:43:03;;;;;;;3.50;2.38;;;19.90;52.10;;;;;;4952213;28;20576;-37
2022/10/17 05:45:34;;;;;;;4.13;2.00;;;19.90;52.10;;;;;;4952263;28;20230;-39
2022/10/17 05:48:04;;;;;;;4.10;2.53;;;19.90;52.10;;;;;;4955666;28;20546;-36
2022/10/17 05:50:35;;;;;;;5.78;2.47;;;19.90;52.10;;;;;;4955684;29;20203;-36
2022/10/17 05:53:08;;;;;;;3.90;2.20;;;19.90;52.20;;;;;;4956214;28;20228;-36
2022/10/17 05:55:38;;;;;;;4.05;2.20;;;19.90;52.20;;;;;;4948822;28;20212;-42
2022/10/17 05:58:10;;;;;;;3.90;2.10;;;19.90;52.30;;;;;;4934940;29;20195;-39
2022/10/17 06:00:40;;;;;;;3.67;2.33;;;19.90;52.30;;;;;;4937110;29;20200;-39
2022/10/17 06:03:13;;;;;;;3.75;2.42;;;19.80;52.20;;;;;;4936486;29;20659;-39
2022/10/17 06:05:44;;;;;;;4.05;2.10;;;19.80;52.20;;;;;;4939994;28;20226;-36
2022/10/17 06:08:16;;;;;;;3.85;2.15;;;19.80;52.20;;;;;;4938488;29;20204;-37
2022/10/17 06:10:50;;;;;;;3.15;2.28;;;19.80;52.30;;;;;;4928986;29;20267;-43
2022/10/17 06:13:21;;;;;;;4.85;2.30;;;19.80;52.30;;;;;;4956148;28;20226;-44
2022/10/17 06:15:52;;;;;;;3.85;2.10;;;19.80;52.30;;;;;;4917517;29;20220;-42
2022/10/17 06:18:23;;;;;;;4.45;2.55;;;19.80;52.90;;;;;;4917381;29;20319;-39
2022/10/17 06:20:53;;;;;;;4.30;1.90;;;19.80;52.30;;;;;;4936886;29;20211;-40
2022/10/17 06:23:26;;;;;;;3.65;2.20;;;19.70;52.30;;;;;;4945687;29;20195;-40
2022/10/17 06:26:01;;;;;;;2.72;1.90;;;19.70;52.30;;;;;;4922601;29;20715;-39
2022/10/17 06:28:32;;;;;;;3.13;2.05;;;19.70;52.30;;;;;;4936429;29;20246;-47
2022/10/17 06:31:06;;;;;;;2.90;1.90;;;19.70;52.30;;;;;;4936765;29;20195;-38
2022/10/17 06:33:37;;;;;;;3.28;1.98;;;19.70;52.30;;;;;;4948755;29;20226;-41
2022/10/17 06:36:09;;;;;;;3.08;2.03;;;19.70;52.30;;;;;;4956043;28;20285;-42
2022/10/17 06:38:41;;;;;;;3.95;1.90;;;19.70;52.30;;;;;;4954884;28;20207;-38
2022/10/17 06:41:14;;;;;;;3.65;2.30;;;19.70;52.40;;;;;;4954398;28;20207;-39
2022/10/17 06:43:46;;;;;;;4.55;2.50;;;19.70;52.40;;;;;;4954430;28;20201;-36
2022/10/17 06:46:18;;;;;;;2.75;1.90;;;19.60;52.30;;;;;;4954712;28;20278;-38
2022/10/17 06:48:49;;;;;;;2.85;2.10;;;19.60;52.30;;;;;;4945204;28;20196;-46
2022/10/17 06:51:19;;;;;;;3.92;1.85;;;19.60;52.40;;;;;;4935191;29;20207;-40
2022/10/17 06:53:52;;;;;;;3.35;1.92;;;19.60;52.30;;;;;;4935030;29;20238;-36
2022/10/17 06:56:23;;;;;;;3.80;1.90;;;19.60;52.30;;;;;;4935339;29;20212;-36
2022/10/17 06:58:53;;;;;;;4.43;2.20;;;19.50;52.30;;;;;;4935031;29;20201;-42
2022/10/17 07:01:24;;;;;;;2.63;2.15;;;19.50;52.40;;;;;;4954574;28;20203;-43
2022/10/17 07:03:55;;;;;;;2.70;1.70;;;19.50;52.90;;;;;;4945048;28;20568;-40
2022/10/17 07:06:26;;;;;;;3.33;1.88;;;19.50;52.30;;;;;;4936277;29;20200;-40
2022/10/17 07:08:59;;;;;;;3.83;1.90;;;19.50;52.30;;;;;;4934472;29;20187;-37
2022/10/17 07:11:30;;;;;;;2.50;1.73;;;19.50;52.30;;;;;;4935083;29;20203;-42
2022/10/17 07:14:01;;;;;;;3.17;1.75;;;19.50;52.30;;;;;;4935281;29;20238;-38
2022/10/17 07:16:32;;;;;;;2.42;1.92;;;19.50;52.30;;;;;;4934881;29;20634;-43
2022/10/17 07:19:02;;;;;;;3.67;2.13;;;19.50;52.30;;;;;;4933903;29;20195;-45
2022/10/17 07:21:33;;;;;;;2.80;1.88;;;19.40;52.30;;;;;;4934482;29;20238;-40
2022/10/17 07:24:06;;;;;;;3.47;2.05;;;19.40;52.30;;;;;;4934950;29;20204;-37
2022/10/17 07:26:37;;;;;;;4.03;2.13;;;19.40;52.30;;;;;;4934630;29;20554;-42
2022/10/17 07:29:08;;;;;;;2.70;1.70;;;19.40;52.30;;;;;;4935033;29;20559;-38
2022/10/17 07:31:38;;;;;;;4.70;2.00;;;19.30;52.40;;;;;;4934505;29;21040;-42
2022/10/17 07:34:09;;;;;;;2.22;1.80;;;19.30;52.30;;;;;;4934126;29;20275;-40
2022/10/17 07:36:40;;;;;;;3.22;1.92;;;19.30;52.30;;;;;;4934849;29;20210;-39
2022/10/17 07:39:12;;;;;;;5.07;2.22;;;19.30;52.30;;;;;;4934572;29;20203;-43
2022/10/17 07:41:43;;;;;;;3.67;2.08;;;19.30;52.30;;;;;;4934506;29;20207;-37
2022/10/17 07:44:14;;;;;;;3.22;1.98;;;19.30;52.30;;;;;;4934272;29;20203;-39
2022/10/17 07:46:44;;;;;;;2.10;1.80;;;19.30;52.30;;;;;;4934015;29;20206;-36
2022/10/17 07:49:15;;;;;;;3.03;1.85;;;19.30;52.30;;;;;;4933651;28;20199;-38
2022/10/17 07:51:46;;;;;;;2.42;2.03;;;19.20;52.20;;;;;;4934303;29;20282;-41
2022/10/17 07:54:19;;;;;;;2.22;1.60;;;19.20;52.30;;;;;;4933755;29;20683;-38
2022/10/17 07:56:49;;;;;;;4.28;1.70;;;19.20;52.20;;;;;;4934312;29;20230;-42
2022/10/17 07:59:20;;;;;;;3.60;2.00;;;19.20;52.30;;;;;;4934902;29;20196;-42
2022/10/17 08:01:51;;;;;;;2.80;1.90;;;19.10;52.30;;;;;;4915206;29;20196;-44
2022/10/17 08:04:22;;;;;;;4.38;2.25;;;19.10;52.30;;;;;;4923788;29;20235;-40
2022/10/17 08:06:53;;;;;;;2.20;1.60;;;19.10;52.30;;;;;;4934019;29;20287;-41
2022/10/17 08:09:26;;;;;;;3.08;2.10;;;19.10;52.30;;;;;;4933835;29;20210;-42
2022/10/17 08:11:56;;;;;;;4.20;2.58;;;19.00;52.30;;;;;;4934062;29;20203;-39
2022/10/17 08:14:27;;;;;;;13.00;4.13;;;19.00;53.00;;;;;;4933912;29;20235;-55
2022/10/17 08:16:58;;;;;;;22.55;11.85;;;19.10;52.50;;;;;;4933986;29;20200;-57
2022/10/17 08:19:29;;;;;;;19.08;8.63;;;18.90;51.00;;;;;;4933306;29;20210;-39
2022/10/17 08:22:00;;;;;;;9.13;5.55;;;18.80;50.80;;;;;;4933999;29;20743;-51
2022/10/17 08:24:33;;;;;;;11.07;5.30;;;18.60;52.50;;;;;;4934242;29;20227;-41
2022/10/17 08:27:10;;;;;;;13.75;6.55;;;18.50;54.00;;;;;;4933508;29;20204;-42
2022/10/17 08:29:40;;;;;;;11.15;5.72;;;18.50;54.30;;;;;;4933372;29;20231;-39
2022/10/17 08:32:11;;;;;;;10.75;5.68;;;18.50;54.10;;;;;;4933631;29;20212;-36
2022/10/17 08:34:42;;;;;;;12.10;5.82;;;18.50;54.00;;;;;;4933046;29;20243;-38
2022/10/17 08:37:13;;;;;;;10.77;6.10;;;18.40;53.90;;;;;;4933672;29;20196;-43
2022/10/17 08:39:46;;;;;;;9.65;4.93;;;18.40;53.80;;;;;;4933755;29;20285;-42
2022/10/17 08:43:03;;;;;;;11.63;6.10;;;18.40;53.80;;;;;;4933494;29;20214;-40
2022/10/17 08:45:37;;;;;;;9.85;5.43;;;18.40;53.80;;;;;;4933250;29;20230;-41
2022/10/17 08:48:13;;;;;;;9.77;5.38;;;18.40;53.60;;;;;;4935448;29;20201;-39
2022/10/17 08:50:48;;;;;;;10.02;5.32;;;18.40;53.60;;;;;;4934118;29;20222;-38
2022/10/17 08:53:23;;;;;;;9.95;5.07;;;18.40;53.60;;;;;;4933874;29;20223;-44
2022/10/17 08:55:56;;;;;;;10.95;4.55;;;18.40;53.50;;;;;;4934328;29;20218;-37
2022/10/17 08:58:29;;;;;;;7.40;4.63;;;18.40;53.50;;;;;;4933892;29;20209;-41
2022/10/17 09:01:06;;;;;;;9.13;5.18;;;18.30;53.40;;;;;;4949585;29;20557;-43
2022/10/17 09:03:59;;;;;;;9.88;4.95;;;18.40;53.50;;;;;;4933653;29;20199;-43
2022/10/17 09:06:34;;;;;;;9.73;4.32;;;18.30;53.40;;;;;;4944106;29;20575;-46
2022/10/17 09:09:18;;;;;;;8.23;4.65;;;18.30;53.30;;;;;;4933433;29;20210;-42
2022/10/17 09:12:02;;;;;;;8.52;5.18;;;18.30;53.30;;;;;;4934400;29;20243;-43
2022/10/17 09:15:14;;;;;;;8.18;4.85;;;18.30;53.30;;;;;;4933968;29;20227;-57
2022/10/17 09:17:52;;;;;;;7.82;4.50;;;18.20;53.30;;;;;;4933961;29;20207;-37
2022/10/17 09:20:26;;;;;;;7.43;4.47;;;18.20;53.20;;;;;;4934106;29;20262;-41
2022/10/17 09:23:01;;;;;;;9.68;4.68;;;18.20;53.20;;;;;;4939446;29;20191;-38
2022/10/17 09:25:42;;;;;;;7.93;4.60;;;18.20;53.20;;;;;;4940218;29;20698;-41
2022/10/17 09:28:20;;;;;;;7.47;4.32;;;18.20;53.20;;;;;;4939606;29;20610;-46
2022/10/17 09:30:57;;;;;;;7.22;4.40;;;18.20;53.10;;;;;;4939581;29;20202;-52
2022/10/17 09:33:30;;;;;;;6.28;4.30;;;18.20;53.00;;;;;;4939860;29;20317;-42
2022/10/17 09:36:02;;;;;;;6.32;4.25;;;18.20;53.00;;;;;;4939400;29;20223;-46
2022/10/17 09:38:40;;;;;;;7.50;4.22;;;18.10;53.00;;;;;;4939120;29;20199;-45
2022/10/17 09:41:20;;;;;;;5.72;3.83;;;18.10;53.00;;;;;;4940363;29;20247;-43
2022/10/17 09:43:57;;;;;;;5.60;4.03;;;18.10;53.00;;;;;;4940038;29;20203;-42
2022/10/17 09:46:32;;;;;;;7.25;4.22;;;18.00;53.00;;;;;;4939620;29;20277;-41
2022/10/17 09:49:06;;;;;;;6.95;3.97;;;18.00;53.00;;;;;;4938971;29;20203;-45
2022/10/17 09:51:40;;;;;;;7.22;4.22;;;18.00;53.00;;;;;;4939206;29;20216;-41
2022/10/17 09:54:19;;;;;;;7.05;3.80;;;18.00;53.00;;;;;;4937690;29;20223;-37
2022/10/17 09:57:04;;;;;;;6.40;4.13;;;18.00;53.00;;;;;;4932497;29;20203;-41
2022/10/17 09:59:39;;;;;;;6.30;3.80;;;18.00;53.00;;;;;;4944470;29;20256;-49
2022/10/17 10:02:20;;;;;;;6.80;3.80;;;18.00;53.00;;;;;;4939843;29;20719;-47
2022/10/17 10:05:00;;;;;;;5.80;3.75;;;18.00;52.90;;;;;;4939626;29;20318;-41
2022/10/17 10:07:34;;;;;;;5.20;3.70;;;17.90;52.80;;;;;;4939907;29;20205;-37
2022/10/17 10:10:07;;;;;;;6.50;4.03;;;17.90;52.80;;;;;;4939076;29;20839;-43
2022/10/17 10:12:39;;;;;;;5.40;3.90;;;17.90;52.80;;;;;;4939616;29;20199;-40
2022/10/17 10:15:34;;;;;;;5.95;3.83;;;17.90;52.80;;;;;;4939615;29;20223;-37
2022/10/17 10:18:14;;;;;;;6.88;3.63;;;17.90;52.90;;;;;;4919071;29;20647;-37
2022/10/17 10:20:45;;;;;;;4.88;3.38;;;17.80;52.80;;;;;;4930026;29;20213;-37
2022/10/17 10:23:20;;;;;;;4.65;3.17;;;17.80;52.80;;;;;;4939716;29;20203;-43
2022/10/17 10:25:58;;;;;;;4.68;3.28;;;17.80;52.80;;;;;;4939294;29;20262;-40
2022/10/17 10:28:31;;;;;;;6.88;3.70;;;17.70;52.80;;;;;;4939198;29;20199;-37
2022/10/17 10:31:08;;;;;;;4.90;3.35;;;17.70;52.80;;;;;;4940008;29;20199;-37
2022/10/17 10:33:44;;;;;;;5.78;3.45;;;17.70;52.80;;;;;;4937025;29;20226;-37
2022/10/17 10:36:15;;;;;;;7.18;4.10;;;17.70;52.80;;;;;;4937027;29;20211;-37
2022/10/17 10:38:56;;;;;;;4.72;3.22;;;17.70;52.70;;;;;;4935753;29;20200;-55
2022/10/17 10:41:28;;;;;;;5.40;3.50;;;17.70;52.70;;;;;;4936029;29;20204;-38
2022/10/17 10:43:59;;;;;;;4.65;3.42;;;17.70;52.70;;;;;;4936322;29;20652;-40
2022/10/17 10:46:31;;;;;;;5.47;3.88;;;17.70;52.70;;;;;;4936128;28;20644;-48
2022/10/17 10:49:03;;;;;;;5.60;3.53;;;17.70;52.70;;;;;;4936297;29;20675;-46
2022/10/17 10:51:36;;;;;;;5.45;3.72;;;17.60;52.70;;;;;;4935995;29;20569;-37
2022/10/17 10:54:13;;;;;;;4.97;3.42;;;17.60;52.70;;;;;;4936197;29;20228;-39
2022/10/17 10:56:46;;;;;;;5.93;4.00;;;17.60;52.70;;;;;;4936649;29;20207;-42
2022/10/17 10:59:22;;;;;;;6.00;4.03;;;17.60;52.70;;;;;;4940509;29;20645;-37
2022/10/17 11:01:59;;;;;;;7.03;3.55;;;17.50;52.60;;;;;;4954514;28;20286;-42
2022/10/17 11:04:34;;;;;;;6.05;4.25;;;17.50;52.60;;;;;;4954185;28;20613;-51
2022/10/17 11:07:09;;;;;;;5.47;4.15;;;17.50;52.60;;;;;;4951190;28;20198;-41
2022/10/17 11:09:50;;;;;;;5.28;3.60;;;17.50;52.60;;;;;;4954172;28;20205;-41
2022/10/17 11:12:25;;;;;;;5.85;3.40;;;17.50;52.60;;;;;;4916326;29;20231;-47
2022/10/17 11:15:02;;;;;;;4.90;3.47;;;17.50;52.60;;;;;;4916205;29;20242;-43
2022/10/17 11:17:39;;;;;;;5.32;3.20;;;17.50;52.60;;;;;;4916250;29;20602;-41
2022/10/17 11:20:19;;;;;;;4.70;3.35;;;17.40;52.60;;;;;;4915891;29;20195;-37
2022/10/17 11:22:52;;;;;;;4.57;3.40;;;17.40;52.50;;;;;;4927749;29;20199;-46
2022/10/17 11:25:34;;;;;;;4.18;3.30;;;17.40;52.60;;;;;;4935029;29;20232;-40
2022/10/17 11:28:06;;;;;;;5.82;3.65;;;17.40;53.10;;;;;;4935076;29;20203;-43
2022/10/17 11:30:46;;;;;;;5.68;3.58;;;17.30;52.50;;;;;;4934840;29;20215;-40
2022/10/17 11:33:23;;;;;;;5.28;3.40;;;17.30;52.50;;;;;;4934730;29;20207;-39
2022/10/17 11:35:56;;;;;;;4.07;3.15;;;17.30;52.50;;;;;;4934611;29;20680;-43
2022/10/17 11:38:36;;;;;;;4.55;3.22;;;17.30;52.50;;;;;;4934451;29;20199;-39
2022/10/17 11:41:10;;;;;;;5.07;3.47;;;17.30;52.50;;;;;;4934144;29;20539;-39
2022/10/17 11:43:45;;;;;;;4.82;3.22;;;17.20;52.50;;;;;;4933892;29;20215;-52
2022/10/17 11:46:18;;;;;;;4.80;3.30;;;17.20;52.50;;;;;;4934728;29;20226;-48
2022/10/17 11:49:00;;;;;;;3.95;3.05;;;17.20;52.50;;;;;;4934197;29;20197;-42
2022/10/17 11:51:36;;;;;;;4.75;3.08;;;17.20;52.50;;;;;;4934278;29;20203;-44
2022/10/17 11:54:13;;;;;;;5.80;3.53;;;17.20;52.50;;;;;;4933677;29;20224;-42
2022/10/17 11:56:48;;;;;;;4.00;2.90;;;17.10;52.50;;;;;;4933558;29;20234;-46
2022/10/17 11:59:49;;;;;;;4.45;3.22;;;17.10;52.40;;;;;;4937950;29;20193;-46
2022/10/17 12:02:29;;;;;;;4.00;2.95;;;17.10;52.50;;;;;;4950094;28;20201;-42
2022/10/17 12:05:06;;;;;;;5.07;3.28;;;17.10;52.50;;;;;;4952912;28;20729;-44
2022/10/17 12:07:48;;;;;;;4.47;3.08;;;17.10;52.40;;;;;;4953476;28;20253;-44
2022/10/17 12:10:30;;;;;;;5.75;3.15;;;17.10;52.50;;;;;;4951945;28;20210;-37
2022/10/17 12:13:44;;;;;;;4.50;3.38;;;17.00;52.40;;;;;;4934101;29;20419;-42
2022/10/17 12:16:51;;;;;;;5.13;2.90;;;17.00;52.40;;;;;;4923963;29;20227;-47
2022/10/17 12:19:31;;;;;;;5.05;3.42;;;17.00;52.40;;;;;;4933545;29;20202;-38
2022/10/17 12:22:21;;;;;;;4.57;3.03;;;17.00;52.40;;;;;;4933834;29;20242;-41
2022/10/17 12:25:02;;;;;;;3.60;2.72;;;16.90;52.40;;;;;;4933800;29;20223;-41
2022/10/17 12:27:45;;;;;;;3.35;2.95;;;16.90;52.40;;;;;;4933324;29;20214;-45
2022/10/17 12:30:26;;;;;;;3.63;2.70;;;16.90;52.40;;;;;;4933860;29;20204;-40
2022/10/17 12:33:06;;;;;;;4.82;3.05;;;16.90;52.40;;;;;;4933662;29;20222;-37
2022/10/17 12:35:38;;;;;;;3.08;2.53;;;16.90;52.40;;;;;;4933253;29;20294;-42
2022/10/17 12:38:29;;;;;;;3.30;2.67;;;16.90;52.40;;;;;;4933464;29;20206;-47
2022/10/17 12:41:02;;;;;;;4.68;3.17;;;16.80;52.30;;;;;;4933248;29;20227;-44
2022/10/17 12:43:59;;;;;;;4.13;3.10;;;16.80;52.30;;;;;;4933548;29;20202;-37
2022/10/17 12:46:59;;;;;;;4.28;2.55;;;16.80;52.40;;;;;;4933234;29;20203;-48
2022/10/17 12:49:50;;;;;;;3.75;2.50;;;16.80;52.30;;;;;;4933080;29;20199;-40
2022/10/17 12:52:27;;;;;;;4.15;2.90;;;16.70;52.30;;;;;;4933029;29;20644;-44
2022/10/17 12:55:09;;;;;;;4.53;2.78;;;16.70;52.30;;;;;;4932522;29;20231;-40
2022/10/17 12:57:44;;;;;;;3.53;2.53;;;16.70;52.30;;;;;;4931992;29;20199;-41
2022/10/17 13:00:24;;;;;;;3.40;2.17;;;16.70;52.30;;;;;;4944459;29;20198;-39
2022/10/17 13:02:57;;;;;;;3.53;2.40;;;16.70;52.30;;;;;;4952355;28;20203;-42
2022/10/17 13:05:32;;;;;;;3.80;2.78;;;16.70;52.30;;;;;;4948781;28;20219;-37
2022/10/17 13:08:06;;;;;;;2.78;2.47;;;16.70;52.30;;;;;;4952194;28;20235;-42
2022/10/17 13:10:41;;;;;;;3.50;2.60;;;16.70;52.30;;;;;;4951397;28;20203;-44
2022/10/17 13:13:18;;;;;;;3.65;2.50;;;16.70;52.20;;;;;;4914190;29;20203;-42
2022/10/17 13:15:53;;;;;;;3.53;2.35;;;16.70;52.20;;;;;;4914044;29;20707;-45
2022/10/17 13:18:25;;;;;;;3.33;2.22;;;16.60;52.10;;;;;;4914106;29;20682;-42
2022/10/17 13:21:01;;;;;;;3.17;2.22;;;16.60;52.10;;;;;;4914199;29;20230;-44
2022/10/17 13:23:35;;;;;;;3.50;2.60;;;16.60;52.20;;;;;;4923481;29;20197;-39
2022/10/17 13:26:14;;;;;;;4.65;2.30;;;16.60;52.20;;;;;;4932575;29;20309;-50